PILOTS ONLINE: 522    ATC ONLINE: 158

KHND

Henderson Executive Airport

Location

City Las Vegas
Country  United States
Latitude 35° 58' 22" N
Longitude 115° 8' 2" W
Elevation 2492 ft
Type Small Airport

Map

Weather

METAR
2014/09/17 18:56
KHND 171856Z 01003KT 10SM CLR 33/15 A2991 RMK AO2 T03270150 SLP097
TAF
2014/09/17 18:30
TAF KHND 171729Z 1718/1818 VRB06KT P6SM FEW100 SCT250 
     FM171900 09007KT P6SM SCT080 BKN150 
     FM180000 17010KT P6SM SCT080 BKN150 
     FM180600 19007KT P6SM SCT150

Runways

17L/35R 5001 ft / 75 ft
17R/35L 6501 ft / 100 ft

Outbound flights

Callsign Flying to Pilot ATD/STD ETA Aircraft

Inbound flights

Callsign Flying from Pilot ATD ETA Aircraft